Urb Garcia Ponce, Puerto Rico
Current Conditions -  °F | °C
As of 11:53 PM on Sunday 23 Nov 2014 (Local Time) from TJNR Reporting Station
Scattered Clouds Scattered Clouds  
Wind Chill: 81°   Ceiling: Unl
Heat Index: 85°   Visibility: 10mi
Dew Point: 72°   Wind: 9mph
Humidity: 74%   Direction: 80°E
Pressure: 30.05"   Gusts: NA
Location:  18.3304°N, 65.6573°W
Report Text: TJNR 240353Z AUTO 08008KT 10SM SCT030 27/22 A3005 RMK AO2 SLP175 T02720222 403060256 $
Loading
Personal Weather Stations






























Interactive Weather Map New forecast layout! Learn more

10-Day Weather Forecast

Advertisements
Track Severe Weather on mobile